TimeEST,TemperatureF,Dew PointF,Humidity,Sea Level PressureIn,VisibilityMPH,Wind Direction,Wind SpeedMPH,Gust SpeedMPH,PrecipitationIn,Events,Conditions,WindDirDegrees,DateUTC
12:53 AM,52.0,37.9,59,30.03,10.0,WNW,9.2,-,N/A,,Mostly Cloudy,300,2013-03-02 05:53:00
1:53 AM,51.1,37.0,59,30.02,10.0,NNW,12.7,-,N/A,,Mostly Cloudy,330,2013-03-02 06:53:00
2:53 AM,50.0,34.0,54,30.03,10.0,NW,13.8,-,N/A,,Mostly Cloudy,310,2013-03-02 07:53:00
3:53 AM,48.9,34.0,56,30.02,10.0,NW,11.5,-,N/A,,Scattered Clouds,310,2013-03-02 08:53:00
4:53 AM,48.9,32.0,52,30.03,10.0,NW,11.5,-,N/A,,Mostly Cloudy,310,2013-03-02 09:53:00
5:53 AM,48.9,32.0,52,30.02,10.0,NW,10.4,-,N/A,,Mostly Cloudy,320,2013-03-02 10:53:00
6:53 AM,46.0,32.0,58,30.02,10.0,NW,4.6,-,N/A,,Scattered Clouds,310,2013-03-02 11:53:00
7:53 AM,48.9,33.1,54,30.03,10.0,North,8.1,-,N/A,,Scattered Clouds,350,2013-03-02 12:53:00
8:53 AM,51.1,30.9,46,30.05,10.0,NNW,8.1,-,N/A,,Scattered Clouds,340,2013-03-02 13:53:00
9:53 AM,54.0,32.0,43,30.04,10.0,NNW,9.2,-,N/A,,Mostly Cloudy,330,2013-03-02 14:53:00
10:53 AM,54.0,33.1,45,30.05,10.0,NW,11.5,-,N/A,,Overcast,310,2013-03-02 15:53:00
11:53 AM,57.9,35.1,42,30.04,10.0,NW,12.7,23.0,N/A,,Scattered Clouds,310,2013-03-02 16:53:00
12:53 PM,57.0,33.1,40,30.03,10.0,WNW,19.6,34.5,N/A,,Overcast,290,2013-03-02 17:53:00
1:53 PM,59.0,25.0,27,29.99,10.0,WNW,15.0,31.1,N/A,,Mostly Cloudy,290,2013-03-02 18:53:00
2:53 PM,60.1,21.9,23,29.98,10.0,West,24.2,36.8,N/A,,Mostly Cloudy,270,2013-03-02 19:53:00
3:53 PM,59.0,26.1,28,29.97,10.0,West,23.0,31.1,N/A,,Scattered Clouds,270,2013-03-02 20:53:00
4:53 PM,55.0,26.1,33,29.98,10.0,West,25.3,36.8,N/A,,Scattered Clouds,280,2013-03-02 21:53:00
5:53 PM,53.1,30.0,41,30.00,10.0,WNW,15.0,26.5,N/A,,Scattered Clouds,290,2013-03-02 22:53:00
6:53 PM,51.1,30.9,46,30.01,10.0,West,13.8,-,N/A,,Mostly Cloudy,270,2013-03-02 23:53:00
7:53 PM,50.0,30.9,48,30.02,10.0,West,12.7,19.6,N/A,,Scattered Clouds,280,2013-03-03 00:53:00
8:53 PM,48.9,30.0,48,30.03,10.0,West,10.4,-,N/A,,Scattered Clouds,280,2013-03-03 01:53:00
9:53 PM,46.9,32.0,56,30.03,10.0,West,6.9,-,N/A,,Partly Cloudy,280,2013-03-03 02:53:00
10:53 PM,46.9,32.0,56,30.02,10.0,West,3.5,-,N/A,,Partly Cloudy,270,2013-03-03 03:53:00
11:53 PM,46.0,32.0,58,30.03,10.0,WNW,5.8,-,N/A,,Partly Cloudy,300,2013-03-03 04:53:00